sensor_id;sensor_type;location;lat;lon;timestamp;P1;durP1;ratioP1;P2;durP2;ratioP2
53549;SDS011;67273;52.914;-0.982;2023-07-31T00:01:35;3.70;;;2.00;;
53549;SDS011;67273;52.914;-0.982;2023-07-31T00:04:01;3.35;;;2.00;;
53549;SDS011;67273;52.914;-0.982;2023-07-31T00:06:27;3.03;;;2.00;;
53549;SDS011;67273;52.914;-0.982;2023-07-31T00:08:52;4.00;;;2.00;;
53549;SDS011;67273;52.914;-0.982;2023-07-31T00:11:18;2.65;;;1.70;;
53549;SDS011;67273;52.914;-0.982;2023-07-31T00:13:44;3.63;;;2.10;;
53549;SDS011;67273;52.914;-0.982;2023-07-31T00:16:09;3.78;;;1.98;;
53549;SDS011;67273;52.914;-0.982;2023-07-31T00:18:36;3.90;;;1.88;;
53549;SDS011;67273;52.914;-0.982;2023-07-31T00:21:02;3.17;;;2.00;;
53549;SDS011;67273;52.914;-0.982;2023-07-31T00:23:28;3.42;;;2.00;;
53549;SDS011;67273;52.914;-0.982;2023-07-31T00:25:54;3.70;;;1.92;;
53549;SDS011;67273;52.914;-0.982;2023-07-31T00:28:19;2.50;;;1.73;;
53549;SDS011;67273;52.914;-0.982;2023-07-31T00:30:45;2.75;;;1.77;;
53549;SDS011;67273;52.914;-0.982;2023-07-31T00:33:11;4.10;;;2.00;;
53549;SDS011;67273;52.914;-0.982;2023-07-31T00:35:38;2.90;;;1.85;;
53549;SDS011;67273;52.914;-0.982;2023-07-31T00:38:03;1.70;;;1.60;;
53549;SDS011;67273;52.914;-0.982;2023-07-31T00:40:30;4.10;;;1.60;;
53549;SDS011;67273;52.914;-0.982;2023-07-31T00:43:00;2.75;;;1.75;;
53549;SDS011;67273;52.914;-0.982;2023-07-31T00:45:25;4.10;;;1.70;;
53549;SDS011;67273;52.914;-0.982;2023-07-31T00:47:52;2.55;;;1.73;;
53549;SDS011;67273;52.914;-0.982;2023-07-31T00:50:18;2.85;;;1.92;;
53549;SDS011;67273;52.914;-0.982;2023-07-31T00:52:46;2.03;;;1.50;;
53549;SDS011;67273;52.914;-0.982;2023-07-31T00:55:12;3.55;;;1.90;;
53549;SDS011;67273;52.914;-0.982;2023-07-31T00:57:37;3.92;;;1.98;;
53549;SDS011;67273;52.914;-0.982;2023-07-31T01:00:07;2.45;;;1.63;;
53549;SDS011;67273;52.914;-0.982;2023-07-31T01:02:33;2.30;;;1.65;;
53549;SDS011;67273;52.914;-0.982;2023-07-31T01:04:59;3.10;;;1.65;;
53549;SDS011;67273;52.914;-0.982;2023-07-31T01:07:27;2.97;;;1.50;;
53549;SDS011;67273;52.914;-0.982;2023-07-31T01:10:02;3.25;;;1.73;;
53549;SDS011;67273;52.914;-0.982;2023-07-31T01:12:32;2.05;;;1.52;;
53549;SDS011;67273;52.914;-0.982;2023-07-31T01:15:03;2.50;;;1.50;;
53549;SDS011;67273;52.914;-0.982;2023-07-31T01:17:30;2.78;;;1.77;;
53549;SDS011;67273;52.914;-0.982;2023-07-31T01:19:56;4.28;;;1.75;;
53549;SDS011;67273;52.914;-0.982;2023-07-31T01:22:32;3.67;;;1.60;;
53549;SDS011;67273;52.914;-0.982;2023-07-31T01:25:26;2.47;;;1.38;;
53549;SDS011;67273;52.914;-0.982;2023-07-31T01:28:05;1.88;;;1.60;;
53549;SDS011;67273;52.914;-0.982;2023-07-31T01:30:37;2.40;;;1.60;;
53549;SDS011;67273;52.914;-0.982;2023-07-31T01:33:06;2.58;;;1.70;;
53549;SDS011;67273;52.914;-0.982;2023-07-31T01:35:33;2.33;;;1.42;;
53549;SDS011;67273;52.914;-0.982;2023-07-31T01:38:00;2.38;;;1.63;;
53549;SDS011;67273;52.914;-0.982;2023-07-31T01:40:25;2.38;;;1.67;;
53549;SDS011;67273;52.914;-0.982;2023-07-31T01:42:51;3.53;;;1.73;;
53549;SDS011;67273;52.914;-0.982;2023-07-31T01:45:18;2.28;;;1.30;;
53549;SDS011;67273;52.914;-0.982;2023-07-31T01:47:45;2.88;;;1.40;;
53549;SDS011;67273;52.914;-0.982;2023-07-31T01:50:11;2.15;;;1.60;;
53549;SDS011;67273;52.914;-0.982;2023-07-31T01:52:37;1.60;;;1.50;;
53549;SDS011;67273;52.914;-0.982;2023-07-31T01:55:03;2.67;;;1.40;;
53549;SDS011;67273;52.914;-0.982;2023-07-31T01:57:29;1.85;;;1.50;;
53549;SDS011;67273;52.914;-0.982;2023-07-31T01:59:55;1.75;;;1.40;;
53549;SDS011;67273;52.914;-0.982;2023-07-31T02:02:22;2.20;;;1.48;;
53549;SDS011;67273;52.914;-0.982;2023-07-31T02:04:51;3.40;;;1.52;;
53549;SDS011;67273;52.914;-0.982;2023-07-31T02:07:16;2.25;;;1.48;;
53549;SDS011;67273;52.914;-0.982;2023-07-31T02:09:42;2.70;;;1.60;;
53549;SDS011;67273;52.914;-0.982;2023-07-31T02:12:08;1.85;;;1.42;;
53549;SDS011;67273;52.914;-0.982;2023-07-31T02:14:34;2.72;;;1.40;;
53549;SDS011;67273;52.914;-0.982;2023-07-31T02:17:00;3.05;;;1.83;;
53549;SDS011;67273;52.914;-0.982;2023-07-31T02:19:27;2.22;;;1.40;;
53549;SDS011;67273;52.914;-0.982;2023-07-31T02:21:55;1.10;;;1.00;;
53549;SDS011;67273;52.914;-0.982;2023-07-31T02:24:22;4.72;;;1.50;;
53549;SDS011;67273;52.914;-0.982;2023-07-31T02:26:50;2.15;;;1.50;;
53549;SDS011;67273;52.914;-0.982;2023-07-31T02:29:18;1.73;;;1.33;;
53549;SDS011;67273;52.914;-0.982;2023-07-31T02:31:46;2.17;;;1.40;;
53549;SDS011;67273;52.914;-0.982;2023-07-31T02:34:12;3.47;;;1.42;;
53549;SDS011;67273;52.914;-0.982;2023-07-31T02:36:42;2.45;;;1.30;;
53549;SDS011;67273;52.914;-0.982;2023-07-31T02:39:08;3.38;;;1.40;;
53549;SDS011;67273;52.914;-0.982;2023-07-31T02:41:33;2.42;;;1.20;;
53549;SDS011;67273;52.914;-0.982;2023-07-31T02:43:59;1.92;;;1.10;;
53549;SDS011;67273;52.914;-0.982;2023-07-31T02:46:26;1.45;;;1.20;;
53549;SDS011;67273;52.914;-0.982;2023-07-31T02:48:51;2.13;;;1.42;;
53549;SDS011;67273;52.914;-0.982;2023-07-31T02:51:17;2.60;;;1.30;;
53549;SDS011;67273;52.914;-0.982;2023-07-31T02:53:44;1.95;;;1.20;;
53549;SDS011;67273;52.914;-0.982;2023-07-31T02:56:10;1.85;;;1.40;;
53549;SDS011;67273;52.914;-0.982;2023-07-31T02:58:36;1.80;;;1.08;;
53549;SDS011;67273;52.914;-0.982;2023-07-31T03:01:02;1.95;;;1.42;;
53549;SDS011;67273;52.914;-0.982;2023-07-31T03:03:31;2.60;;;1.40;;
53549;SDS011;67273;52.914;-0.982;2023-07-31T03:05:57;4.32;;;1.55;;
53549;SDS011;67273;52.914;-0.982;2023-07-31T03:08:23;1.33;;;1.08;;
53549;SDS011;67273;52.914;-0.982;2023-07-31T03:10:50;1.98;;;1.40;;
53549;SDS011;67273;52.914;-0.982;2023-07-31T03:13:16;2.25;;;1.30;;
53549;SDS011;67273;52.914;-0.982;2023-07-31T03:15:46;1.30;;;1.20;;
53549;SDS011;67273;52.914;-0.982;2023-07-31T03:18:15;1.45;;;1.20;;
53549;SDS011;67273;52.914;-0.982;2023-07-31T03:20:44;1.67;;;1.20;;
53549;SDS011;67273;52.914;-0.982;2023-07-31T03:23:12;2.95;;;1.30;;
53549;SDS011;67273;52.914;-0.982;2023-07-31T03:25:39;1.80;;;1.30;;
53549;SDS011;67273;52.914;-0.982;2023-07-31T03:28:10;1.88;;;1.30;;
53549;SDS011;67273;52.914;-0.982;2023-07-31T03:30:39;1.20;;;1.00;;
53549;SDS011;67273;52.914;-0.982;2023-07-31T03:33:06;0.98;;;0.93;;
53549;SDS011;67273;52.914;-0.982;2023-07-31T03:35:33;1.17;;;0.95;;
53549;SDS011;67273;52.914;-0.982;2023-07-31T03:38:01;2.42;;;1.20;;
53549;SDS011;67273;52.914;-0.982;2023-07-31T03:40:27;1.35;;;1.00;;
53549;SDS011;67273;52.914;-0.982;2023-07-31T03:42:53;2.63;;;1.13;;
53549;SDS011;67273;52.914;-0.982;2023-07-31T03:45:20;2.92;;;1.20;;
53549;SDS011;67273;52.914;-0.982;2023-07-31T03:47:45;1.27;;;1.05;;
53549;SDS011;67273;52.914;-0.982;2023-07-31T03:50:11;1.40;;;1.02;;
53549;SDS011;67273;52.914;-0.982;2023-07-31T03:52:37;1.95;;;1.00;;
53549;SDS011;67273;52.914;-0.982;2023-07-31T03:55:03;1.50;;;1.05;;
53549;SDS011;67273;52.914;-0.982;2023-07-31T03:57:29;1.17;;;0.82;;
53549;SDS011;67273;52.914;-0.982;2023-07-31T03:59:57;2.30;;;1.17;;
53549;SDS011;67273;52.914;-0.982;2023-07-31T04:02:24;2.67;;;1.23;;
53549;SDS011;67273;52.914;-0.982;2023-07-31T04:04:50;1.02;;;0.90;;
53549;SDS011;67273;52.914;-0.982;2023-07-31T04:07:16;1.50;;;0.90;;
53549;SDS011;67273;52.914;-0.982;2023-07-31T04:09:42;1.88;;;0.95;;
53549;SDS011;67273;52.914;-0.982;2023-07-31T04:12:07;1.13;;;0.90;;
53549;SDS011;67273;52.914;-0.982;2023-07-31T04:14:33;0.98;;;0.88;;
53549;SDS011;67273;52.914;-0.982;2023-07-31T04:16:59;1.33;;;1.00;;
53549;SDS011;67273;52.914;-0.982;2023-07-31T04:19:26;1.33;;;0.93;;
53549;SDS011;67273;52.914;-0.982;2023-07-31T04:21:52;1.98;;;0.90;;
53549;SDS011;67273;52.914;-0.982;2023-07-31T04:24:18;2.63;;;0.90;;
53549;SDS011;67273;52.914;-0.982;2023-07-31T04:26:49;1.33;;;0.77;;
53549;SDS011;67273;52.914;-0.982;2023-07-31T04:29:16;1.20;;;0.93;;
53549;SDS011;67273;52.914;-0.982;2023-07-31T04:31:43;1.92;;;0.90;;
53549;SDS011;67273;52.914;-0.982;2023-07-31T04:34:10;1.77;;;0.60;;
53549;SDS011;67273;52.914;-0.982;2023-07-31T04:36:40;1.80;;;0.90;;
53549;SDS011;67273;52.914;-0.982;2023-07-31T04:39:08;1.40;;;0.63;;
53549;SDS011;67273;52.914;-0.982;2023-07-31T04:41:34;0.70;;;0.70;;
53549;SDS011;67273;52.914;-0.982;2023-07-31T04:44:03;1.05;;;0.88;;
53549;SDS011;67273;52.914;-0.982;2023-07-31T04:46:29;1.80;;;0.82;;
53549;SDS011;67273;52.914;-0.982;2023-07-31T04:48:56;0.55;;;0.52;;
53549;SDS011;67273;52.914;-0.982;2023-07-31T04:51:23;1.52;;;0.80;;
53549;SDS011;67273;52.914;-0.982;2023-07-31T04:53:51;1.65;;;0.80;;
53549;SDS011;67273;52.914;-0.982;2023-07-31T04:56:17;1.27;;;0.80;;
53549;SDS011;67273;52.914;-0.982;2023-07-31T04:58:43;1.77;;;0.70;;
53549;SDS011;67273;52.914;-0.982;2023-07-31T05:01:08;0.70;;;0.70;;
53549;SDS011;67273;52.914;-0.982;2023-07-31T05:03:34;0.85;;;0.63;;
53549;SDS011;67273;52.914;-0.982;2023-07-31T05:06:00;0.60;;;0.60;;
53549;SDS011;67273;52.914;-0.982;2023-07-31T05:08:26;1.10;;;0.70;;
53549;SDS011;67273;52.914;-0.982;2023-07-31T05:10:53;1.95;;;0.82;;
53549;SDS011;67273;52.914;-0.982;2023-07-31T05:13:19;0.82;;;0.65;;
53549;SDS011;67273;52.914;-0.982;2023-07-31T05:15:45;0.73;;;0.70;;
53549;SDS011;67273;52.914;-0.982;2023-07-31T05:18:11;0.85;;;0.80;;
53549;SDS011;67273;52.914;-0.982;2023-07-31T05:20:36;0.60;;;0.60;;
53549;SDS011;67273;52.914;-0.982;2023-07-31T05:23:03;0.98;;;0.80;;
53549;SDS011;67273;52.914;-0.982;2023-07-31T05:25:31;0.82;;;0.63;;
53549;SDS011;67273;52.914;-0.982;2023-07-31T05:27:59;3.42;;;0.95;;
53549;SDS011;67273;52.914;-0.982;2023-07-31T05:30:29;0.70;;;0.70;;
53549;SDS011;67273;52.914;-0.982;2023-07-31T05:32:55;1.00;;;0.77;;
53549;SDS011;67273;52.914;-0.982;2023-07-31T05:35:21;1.20;;;0.85;;
53549;SDS011;67273;52.914;-0.982;2023-07-31T05:37:47;1.00;;;0.90;;
53549;SDS011;67273;52.914;-0.982;2023-07-31T05:40:13;1.75;;;1.02;;
53549;SDS011;67273;52.914;-0.982;2023-07-31T05:42:41;1.67;;;0.95;;
53549;SDS011;67273;52.914;-0.982;2023-07-31T05:45:10;1.35;;;1.00;;
53549;SDS011;67273;52.914;-0.982;2023-07-31T05:47:35;1.77;;;0.93;;
53549;SDS011;67273;52.914;-0.982;2023-07-31T05:50:01;2.15;;;1.00;;
53549;SDS011;67273;52.914;-0.982;2023-07-31T05:52:27;1.25;;;1.00;;
53549;SDS011;67273;52.914;-0.982;2023-07-31T05:54:54;2.28;;;1.50;;
53549;SDS011;67273;52.914;-0.982;2023-07-31T05:57:20;2.15;;;1.30;;
53549;SDS011;67273;52.914;-0.982;2023-07-31T05:59:45;2.67;;;1.80;;
53549;SDS011;67273;52.914;-0.982;2023-07-31T06:02:12;2.78;;;1.73;;
53549;SDS011;67273;52.914;-0.982;2023-07-31T06:04:38;4.03;;;1.50;;
53549;SDS011;67273;52.914;-0.982;2023-07-31T06:07:04;2.30;;;1.60;;
53549;SDS011;67273;52.914;-0.982;2023-07-31T06:09:30;3.63;;;1.65;;
53549;SDS011;67273;52.914;-0.982;2023-07-31T06:11:56;1.90;;;1.45;;
53549;SDS011;67273;52.914;-0.982;2023-07-31T06:14:22;2.55;;;1.75;;
53549;SDS011;67273;52.914;-0.982;2023-07-31T06:16:47;3.60;;;2.00;;
53549;SDS011;67273;52.914;-0.982;2023-07-31T06:19:15;6.18;;;2.35;;
53549;SDS011;67273;52.914;-0.982;2023-07-31T06:21:40;4.88;;;2.65;;
53549;SDS011;67273;52.914;-0.982;2023-07-31T06:24:08;2.40;;;1.70;;
53549;SDS011;67273;52.914;-0.982;2023-07-31T06:26:34;3.97;;;2.42;;
53549;SDS011;67273;52.914;-0.982;2023-07-31T06:29:00;4.10;;;2.35;;
53549;SDS011;67273;52.914;-0.982;2023-07-31T06:31:26;4.15;;;2.22;;
53549;SDS011;67273;52.914;-0.982;2023-07-31T06:33:52;3.25;;;2.35;;
53549;SDS011;67273;52.914;-0.982;2023-07-31T06:36:19;3.15;;;2.55;;
53549;SDS011;67273;52.914;-0.982;2023-07-31T06:38:44;5.57;;;2.65;;
53549;SDS011;67273;52.914;-0.982;2023-07-31T06:41:10;5.03;;;2.92;;
53549;SDS011;67273;52.914;-0.982;2023-07-31T06:43:36;5.47;;;3.00;;
53549;SDS011;67273;52.914;-0.982;2023-07-31T06:46:04;4.70;;;2.92;;
53549;SDS011;67273;52.914;-0.982;2023-07-31T06:48:31;4.80;;;2.97;;
53549;SDS011;67273;52.914;-0.982;2023-07-31T06:50:58;4.10;;;2.90;;
53549;SDS011;67273;52.914;-0.982;2023-07-31T06:53:26;4.43;;;2.50;;
53549;SDS011;67273;52.914;-0.982;2023-07-31T06:55:52;6.90;;;3.03;;
53549;SDS011;67273;52.914;-0.982;2023-07-31T06:58:18;5.68;;;2.63;;
53549;SDS011;67273;52.914;-0.982;2023-07-31T07:00:43;3.17;;;2.60;;
53549;SDS011;67273;52.914;-0.982;2023-07-31T07:03:09;6.15;;;3.35;;
53549;SDS011;67273;52.914;-0.982;2023-07-31T07:05:35;5.57;;;2.83;;
53549;SDS011;67273;52.914;-0.982;2023-07-31T07:08:00;5.13;;;3.13;;
53549;SDS011;67273;52.914;-0.982;2023-07-31T07:10:28;5.75;;;3.28;;
53549;SDS011;67273;52.914;-0.982;2023-07-31T07:12:54;7.00;;;3.13;;
53549;SDS011;67273;52.914;-0.982;2023-07-31T07:15:20;4.82;;;3.40;;
53549;SDS011;67273;52.914;-0.982;2023-07-31T07:17:46;6.95;;;4.28;;
53549;SDS011;67273;52.914;-0.982;2023-07-31T07:20:12;10.00;;;4.68;;
53549;SDS011;67273;52.914;-0.982;2023-07-31T07:22:38;8.18;;;4.00;;
53549;SDS011;67273;52.914;-0.982;2023-07-31T07:25:04;7.22;;;3.95;;
53549;SDS011;67273;52.914;-0.982;2023-07-31T07:27:31;6.60;;;3.90;;
53549;SDS011;67273;52.914;-0.982;2023-07-31T07:29:57;8.77;;;4.18;;
53549;SDS011;67273;52.914;-0.982;2023-07-31T07:32:23;8.50;;;4.07;;
53549;SDS011;67273;52.914;-0.982;2023-07-31T07:34:49;8.63;;;3.83;;
53549;SDS011;67273;52.914;-0.982;2023-07-31T07:37:14;10.57;;;4.13;;
53549;SDS011;67273;52.914;-0.982;2023-07-31T07:39:41;7.47;;;3.72;;
53549;SDS011;67273;52.914;-0.982;2023-07-31T07:42:06;6.00;;;3.83;;
53549;SDS011;67273;52.914;-0.982;2023-07-31T07:44:33;8.20;;;3.72;;
53549;SDS011;67273;52.914;-0.982;2023-07-31T07:46:59;6.30;;;3.90;;
53549;SDS011;67273;52.914;-0.982;2023-07-31T07:49:25;6.78;;;3.45;;
53549;SDS011;67273;52.914;-0.982;2023-07-31T07:51:51;6.95;;;3.58;;
53549;SDS011;67273;52.914;-0.982;2023-07-31T07:54:18;4.60;;;3.17;;
53549;SDS011;67273;52.914;-0.982;2023-07-31T07:56:45;6.32;;;3.88;;
53549;SDS011;67273;52.914;-0.982;2023-07-31T07:59:11;6.65;;;3.90;;
53549;SDS011;67273;52.914;-0.982;2023-07-31T08:01:39;8.90;;;3.70;;
53549;SDS011;67273;52.914;-0.982;2023-07-31T08:04:05;5.60;;;3.70;;
53549;SDS011;67273;52.914;-0.982;2023-07-31T08:06:30;5.53;;;3.60;;
53549;SDS011;67273;52.914;-0.982;2023-07-31T08:08:56;5.10;;;3.30;;
53549;SDS011;67273;52.914;-0.982;2023-07-31T08:11:25;5.53;;;3.88;;
53549;SDS011;67273;52.914;-0.982;2023-07-31T08:13:50;6.45;;;3.58;;
53549;SDS011;67273;52.914;-0.982;2023-07-31T08:16:16;5.95;;;3.63;;
53549;SDS011;67273;52.914;-0.982;2023-07-31T08:18:45;7.78;;;3.92;;
53549;SDS011;67273;52.914;-0.982;2023-07-31T08:21:15;5.25;;;3.55;;
53549;SDS011;67273;52.914;-0.982;2023-07-31T08:23:42;4.85;;;3.58;;
53549;SDS011;67273;52.914;-0.982;2023-07-31T08:26:08;7.05;;;3.60;;
53549;SDS011;67273;52.914;-0.982;2023-07-31T08:28:40;5.05;;;3.28;;
53549;SDS011;67273;52.914;-0.982;2023-07-31T08:31:06;5.88;;;3.78;;
53549;SDS011;67273;52.914;-0.982;2023-07-31T08:33:36;7.45;;;3.90;;
53549;SDS011;67273;52.914;-0.982;2023-07-31T08:36:06;6.18;;;3.97;;
53549;SDS011;67273;52.914;-0.982;2023-07-31T08:38:32;6.75;;;4.18;;
53549;SDS011;67273;52.914;-0.982;2023-07-31T08:40:58;6.70;;;3.40;;
53549;SDS011;67273;52.914;-0.982;2023-07-31T08:43:25;4.68;;;3.28;;
53549;SDS011;67273;52.914;-0.982;2023-07-31T08:45:51;5.45;;;3.65;;
53549;SDS011;67273;52.914;-0.982;2023-07-31T08:48:17;6.38;;;3.30;;
53549;SDS011;67273;52.914;-0.982;2023-07-31T08:50:45;5.80;;;3.30;;
53549;SDS011;67273;52.914;-0.982;2023-07-31T08:53:12;5.85;;;3.28;;
53549;SDS011;67273;52.914;-0.982;2023-07-31T08:55:38;4.90;;;3.05;;
53549;SDS011;67273;52.914;-0.982;2023-07-31T08:58:06;4.82;;;3.20;;
53549;SDS011;67273;52.914;-0.982;2023-07-31T09:00:34;4.95;;;3.05;;
53549;SDS011;67273;52.914;-0.982;2023-07-31T09:03:03;6.03;;;2.97;;
53549;SDS011;67273;52.914;-0.982;2023-07-31T09:05:33;6.35;;;3.30;;
53549;SDS011;67273;52.914;-0.982;2023-07-31T09:08:02;7.30;;;2.92;;
53549;SDS011;67273;52.914;-0.982;2023-07-31T09:10:32;4.20;;;3.00;;
53549;SDS011;67273;52.914;-0.982;2023-07-31T09:12:58;6.13;;;3.30;;
53549;SDS011;67273;52.914;-0.982;2023-07-31T09:15:25;5.32;;;2.92;;
53549;SDS011;67273;52.914;-0.982;2023-07-31T09:17:58;6.55;;;2.80;;
53549;SDS011;67273;52.914;-0.982;2023-07-31T09:20:28;4.90;;;2.95;;
53549;SDS011;67273;52.914;-0.982;2023-07-31T09:22:54;4.60;;;2.85;;
53549;SDS011;67273;52.914;-0.982;2023-07-31T09:25:22;4.50;;;2.80;;
53549;SDS011;67273;52.914;-0.982;2023-07-31T09:27:51;5.18;;;2.63;;
53549;SDS011;67273;52.914;-0.982;2023-07-31T09:30:19;4.15;;;2.75;;
53549;SDS011;67273;52.914;-0.982;2023-07-31T09:32:46;4.03;;;2.75;;
53549;SDS011;67273;52.914;-0.982;2023-07-31T09:35:18;4.20;;;2.60;;
53549;SDS011;67273;52.914;-0.982;2023-07-31T09:37:49;4.47;;;2.78;;
53549;SDS011;67273;52.914;-0.982;2023-07-31T09:40:25;4.10;;;2.80;;
53549;SDS011;67273;52.914;-0.982;2023-07-31T09:42:56;3.95;;;2.47;;
53549;SDS011;67273;52.914;-0.982;2023-07-31T09:45:28;5.65;;;2.60;;
53549;SDS011;67273;52.914;-0.982;2023-07-31T09:47:56;3.80;;;2.20;;
53549;SDS011;67273;52.914;-0.982;2023-07-31T09:50:23;4.90;;;2.30;;
53549;SDS011;67273;52.914;-0.982;2023-07-31T09:53:01;20.48;;;3.95;;
53549;SDS011;67273;52.914;-0.982;2023-07-31T09:55:27;12.05;;;3.50;;
53549;SDS011;67273;52.914;-0.982;2023-07-31T09:57:56;15.27;;;4.15;;
53549;SDS011;67273;52.914;-0.982;2023-07-31T10:00:23;13.82;;;3.67;;
53549;SDS011;67273;52.914;-0.982;2023-07-31T10:02:53;17.85;;;3.85;;
53549;SDS011;67273;52.914;-0.982;2023-07-31T10:05:24;12.73;;;3.95;;
53549;SDS011;67273;52.914;-0.982;2023-07-31T10:07:56;8.15;;;3.05;;
53549;SDS011;67273;52.914;-0.982;2023-07-31T10:10:23;10.88;;;2.90;;
53549;SDS011;67273;52.914;-0.982;2023-07-31T10:12:50;9.32;;;3.55;;
53549;SDS011;67273;52.914;-0.982;2023-07-31T10:15:19;10.15;;;3.17;;
53549;SDS011;67273;52.914;-0.982;2023-07-31T10:17:47;6.75;;;2.90;;
53549;SDS011;67273;52.914;-0.982;2023-07-31T10:20:15;7.28;;;2.70;;
53549;SDS011;67273;52.914;-0.982;2023-07-31T10:22:42;8.23;;;3.15;;
53549;SDS011;67273;52.914;-0.982;2023-07-31T10:25:10;9.68;;;2.85;;
53549;SDS011;67273;52.914;-0.982;2023-07-31T10:27:37;6.75;;;2.60;;
53549;SDS011;67273;52.914;-0.982;2023-07-31T10:30:07;8.25;;;2.55;;
53549;SDS011;67273;52.914;-0.982;2023-07-31T10:32:39;4.28;;;2.58;;
53549;SDS011;67273;52.914;-0.982;2023-07-31T10:35:11;6.43;;;2.40;;
53549;SDS011;67273;52.914;-0.982;2023-07-31T10:37:42;7.57;;;2.65;;
53549;SDS011;67273;52.914;-0.982;2023-07-31T10:40:10;6.40;;;2.30;;
53549;SDS011;67273;52.914;-0.982;2023-07-31T10:42:52;6.78;;;2.58;;
53549;SDS011;67273;52.914;-0.982;2023-07-31T10:45:25;5.35;;;2.20;;
53549;SDS011;67273;52.914;-0.982;2023-07-31T10:48:00;6.38;;;2.30;;
53549;SDS011;67273;52.914;-0.982;2023-07-31T10:50:31;6.03;;;2.40;;
53549;SDS011;67273;52.914;-0.982;2023-07-31T10:52:59;5.78;;;2.30;;
53549;SDS011;67273;52.914;-0.982;2023-07-31T10:55:27;5.03;;;2.20;;
53549;SDS011;67273;52.914;-0.982;2023-07-31T10:57:56;7.70;;;2.45;;
53549;SDS011;67273;52.914;-0.982;2023-07-31T11:00:24;5.93;;;2.10;;
53549;SDS011;67273;52.914;-0.982;2023-07-31T11:02:59;5.20;;;2.22;;
53549;SDS011;67273;52.914;-0.982;2023-07-31T11:05:42;2.85;;;1.70;;
53549;SDS011;67273;52.914;-0.982;2023-07-31T11:08:10;3.70;;;2.20;;
53549;SDS011;67273;52.914;-0.982;2023-07-31T11:10:37;3.97;;;1.88;;
53549;SDS011;67273;52.914;-0.982;2023-07-31T11:13:03;5.18;;;2.30;;
53549;SDS011;67273;52.914;-0.982;2023-07-31T11:15:32;4.07;;;2.00;;
53549;SDS011;67273;52.914;-0.982;2023-07-31T11:18:00;3.55;;;1.95;;
53549;SDS011;67273;52.914;-0.982;2023-07-31T11:20:30;2.90;;;1.90;;
53549;SDS011;67273;52.914;-0.982;2023-07-31T11:22:58;3.42;;;1.83;;
53549;SDS011;67273;52.914;-0.982;2023-07-31T11:25:24;2.63;;;1.77;;
53549;SDS011;67273;52.914;-0.982;2023-07-31T11:27:50;3.72;;;2.03;;
53549;SDS011;67273;52.914;-0.982;2023-07-31T11:30:21;3.38;;;1.63;;
53549;SDS011;67273;52.914;-0.982;2023-07-31T11:32:48;4.03;;;1.98;;
53549;SDS011;67273;52.914;-0.982;2023-07-31T11:35:18;2.95;;;1.63;;
53549;SDS011;67273;52.914;-0.982;2023-07-31T11:37:49;3.88;;;1.88;;
53549;SDS011;67273;52.914;-0.982;2023-07-31T11:40:17;2.45;;;1.63;;
53549;SDS011;67273;52.914;-0.982;2023-07-31T11:42:43;4.40;;;1.90;;
53549;SDS011;67273;52.914;-0.982;2023-07-31T11:45:09;7.28;;;2.70;;
53549;SDS011;67273;52.914;-0.982;2023-07-31T11:47:36;4.50;;;2.33;;
53549;SDS011;67273;52.914;-0.982;2023-07-31T11:50:05;6.60;;;3.15;;
53549;SDS011;67273;52.914;-0.982;2023-07-31T11:55:07;9.43;;;4.75;;
53549;SDS011;67273;52.914;-0.982;2023-07-31T11:57:38;9.10;;;5.28;;
53549;SDS011;67273;52.914;-0.982;2023-07-31T12:00:06;9.43;;;4.50;;
53549;SDS011;67273;52.914;-0.982;2023-07-31T12:02:34;6.60;;;3.92;;
53549;SDS011;67273;52.914;-0.982;2023-07-31T12:05:01;8.35;;;3.72;;
53549;SDS011;67273;52.914;-0.982;2023-07-31T12:07:27;7.97;;;3.92;;
53549;SDS011;67273;52.914;-0.982;2023-07-31T12:10:09;5.43;;;3.45;;
53549;SDS011;67273;52.914;-0.982;2023-07-31T12:12:36;6.40;;;3.35;;
53549;SDS011;67273;52.914;-0.982;2023-07-31T12:15:13;6.47;;;3.40;;
53549;SDS011;67273;52.914;-0.982;2023-07-31T12:17:42;5.95;;;3.00;;
53549;SDS011;67273;52.914;-0.982;2023-07-31T12:20:08;11.55;;;3.45;;
53549;SDS011;67273;52.914;-0.982;2023-07-31T12:22:36;5.63;;;3.17;;
53549;SDS011;67273;52.914;-0.982;2023-07-31T12:25:02;6.72;;;3.10;;
53549;SDS011;67273;52.914;-0.982;2023-07-31T12:27:32;5.88;;;3.17;;
53549;SDS011;67273;52.914;-0.982;2023-07-31T12:30:00;6.22;;;2.97;;
53549;SDS011;67273;52.914;-0.982;2023-07-31T12:32:29;6.43;;;3.10;;
53549;SDS011;67273;52.914;-0.982;2023-07-31T12:34:58;6.20;;;2.92;;
53549;SDS011;67273;52.914;-0.982;2023-07-31T12:37:25;6.30;;;2.95;;
53549;SDS011;67273;52.914;-0.982;2023-07-31T12:39:50;5.35;;;3.00;;
53549;SDS011;67273;52.914;-0.982;2023-07-31T12:42:16;6.25;;;3.00;;
53549;SDS011;67273;52.914;-0.982;2023-07-31T12:44:44;6.63;;;3.30;;
53549;SDS011;67273;52.914;-0.982;2023-07-31T12:47:10;6.10;;;2.80;;
53549;SDS011;67273;52.914;-0.982;2023-07-31T12:49:35;6.72;;;3.17;;
53549;SDS011;67273;52.914;-0.982;2023-07-31T12:52:01;5.90;;;3.00;;
53549;SDS011;67273;52.914;-0.982;2023-07-31T12:54:27;6.35;;;2.97;;
53549;SDS011;67273;52.914;-0.982;2023-07-31T12:56:53;6.55;;;3.05;;
53549;SDS011;67273;52.914;-0.982;2023-07-31T12:59:19;8.23;;;3.35;;
53549;SDS011;67273;52.914;-0.982;2023-07-31T13:01:46;6.78;;;2.90;;
53549;SDS011;67273;52.914;-0.982;2023-07-31T13:04:12;6.22;;;2.80;;
53549;SDS011;67273;52.914;-0.982;2023-07-31T13:06:39;6.72;;;3.22;;
53549;SDS011;67273;52.914;-0.982;2023-07-31T13:09:06;5.78;;;2.88;;
53549;SDS011;67273;52.914;-0.982;2023-07-31T13:11:33;5.40;;;3.10;;
53549;SDS011;67273;52.914;-0.982;2023-07-31T13:14:00;5.70;;;2.80;;
53549;SDS011;67273;52.914;-0.982;2023-07-31T13:16:27;5.78;;;3.30;;
53549;SDS011;67273;52.914;-0.982;2023-07-31T13:18:56;4.97;;;2.97;;
53549;SDS011;67273;52.914;-0.982;2023-07-31T13:21:23;6.82;;;2.65;;
53549;SDS011;67273;52.914;-0.982;2023-07-31T13:23:50;5.40;;;2.80;;
53549;SDS011;67273;52.914;-0.982;2023-07-31T13:26:16;7.88;;;3.20;;
53549;SDS011;67273;52.914;-0.982;2023-07-31T13:28:46;6.10;;;3.00;;
53549;SDS011;67273;52.914;-0.982;2023-07-31T13:31:13;4.93;;;2.70;;
53549;SDS011;67273;52.914;-0.982;2023-07-31T13:33:39;5.72;;;3.10;;
53549;SDS011;67273;52.914;-0.982;2023-07-31T13:36:09;6.75;;;2.75;;
53549;SDS011;67273;52.914;-0.982;2023-07-31T13:38:36;6.20;;;3.03;;
53549;SDS011;67273;52.914;-0.982;2023-07-31T13:41:03;5.93;;;2.95;;
53549;SDS011;67273;52.914;-0.982;2023-07-31T13:43:31;6.15;;;2.65;;
53549;SDS011;67273;52.914;-0.982;2023-07-31T13:45:57;7.80;;;3.40;;
53549;SDS011;67273;52.914;-0.982;2023-07-31T13:48:22;5.75;;;3.17;;
53549;SDS011;67273;52.914;-0.982;2023-07-31T13:50:48;6.82;;;3.10;;
53549;SDS011;67273;52.914;-0.982;2023-07-31T13:53:15;5.38;;;3.08;;
53549;SDS011;67273;52.914;-0.982;2023-07-31T13:55:41;8.23;;;3.03;;
53549;SDS011;67273;52.914;-0.982;2023-07-31T13:58:10;7.82;;;3.20;;
53549;SDS011;67273;52.914;-0.982;2023-07-31T14:00:36;6.00;;;3.05;;
53549;SDS011;67273;52.914;-0.982;2023-07-31T14:03:02;8.02;;;3.47;;
53549;SDS011;67273;52.914;-0.982;2023-07-31T14:05:28;7.65;;;3.80;;
53549;SDS011;67273;52.914;-0.982;2023-07-31T14:07:53;7.03;;;3.97;;
53549;SDS011;67273;52.914;-0.982;2023-07-31T14:10:21;7.80;;;3.65;;
53549;SDS011;67273;52.914;-0.982;2023-07-31T14:12:46;7.70;;;3.67;;
53549;SDS011;67273;52.914;-0.982;2023-07-31T14:15:12;8.43;;;3.75;;
53549;SDS011;67273;52.914;-0.982;2023-07-31T14:17:38;10.32;;;3.90;;
53549;SDS011;67273;52.914;-0.982;2023-07-31T14:20:04;9.02;;;4.50;;
53549;SDS011;67273;52.914;-0.982;2023-07-31T14:22:31;7.30;;;3.80;;
53549;SDS011;67273;52.914;-0.982;2023-07-31T14:24:58;7.63;;;4.15;;
53549;SDS011;67273;52.914;-0.982;2023-07-31T14:27:25;7.10;;;3.70;;
53549;SDS011;67273;52.914;-0.982;2023-07-31T14:29:51;7.82;;;3.80;;
53549;SDS011;67273;52.914;-0.982;2023-07-31T14:32:17;8.90;;;3.92;;
53549;SDS011;67273;52.914;-0.982;2023-07-31T14:34:43;9.63;;;4.07;;
53549;SDS011;67273;52.914;-0.982;2023-07-31T14:37:08;6.57;;;3.60;;